New Norfolk, Australia
Current Conditions -  °F | °C
As of 3:30 AM on Saturday 22 Nov 2014 (Local Time) from YMHB Reporting Station
Clear Clear  
Wind Chill: 45°   Ceiling: Unl
Heat Index: 48°   Visibility: 6mi
Dew Point: 45°   Wind: 8mph
Humidity: 87%   Direction: 330°NNW
Pressure: 29.74"   Gusts: NA
Location:  42.78°S, 147.06°E
Report Text: YMHB 211630Z AUTO 33007KT 9999 // NCD 09/07 Q1007
Loading
Personal Weather Stations






























Interactive Weather Map New forecast layout! Learn more

10-Day Weather Forecast

Advertisements
Track Severe Weather on mobile